Data Viewer
| City | State | Eastern Time | Source | Temp | DewPt | RH | BP | 5 Min Precip | Wind Speed | Wind Dir | 5 Min Wind Max | 5 Min Wind Max Dir |
|---|---|---|---|---|---|---|---|---|---|---|---|---|
| Ocean City | NJ | 2026-05-04 05:25 | NJDOT | 43 | 39 | 86 | ||||||
| Ocean City | NJ | 2026-05-04 19:30 | NJDOT | 59 | 48 | 67 | ||||||
| Ocean City | NJ | 2026-05-04 18:25 | NJDOT | 60 | 48 | 65 | ||||||
| Ocean City | NJ | 2026-05-04 18:30 | NJDOT | 60 | 48 | 65 | ||||||
| Ocean City | NJ | 2026-05-04 18:35 | NJDOT | 60 | 48 | 65 | ||||||
| Ocean City | NJ | 2026-05-04 18:40 | NJDOT | 60 | 48 | 65 | ||||||
| Ocean City | NJ | 2026-05-04 19:00 | NJDOT | 59 | 48 | 67 | ||||||
| Ocean City | NJ | 2026-05-04 19:05 | NJDOT | 59 | 48 | 67 | ||||||
| Ocean City | NJ | 2026-05-04 19:10 | NJDOT | 59 | 48 | 67 | ||||||
| Ocean City | NJ | 2026-05-04 19:15 | NJDOT | 59 | 48 | 67 | ||||||
| Ocean City | NJ | 2026-05-04 19:20 | NJDOT | 59 | 48 | 67 | ||||||
| Ocean City | NJ | 2026-05-04 19:25 | NJDOT | 59 | 48 | 67 | ||||||
| Ocean City | NJ | 2026-05-04 19:35 | NJDOT | 59 | 48 | 67 | ||||||
| Ocean City | NJ | 2026-05-04 18:15 | NJDOT | 60 | 48 | 65 | ||||||
| Ocean City | NJ | 2026-05-04 19:40 | NJDOT | 59 | 48 | 67 | ||||||
| Ocean City | NJ | 2026-05-04 19:45 | NJDOT | 59 | 47 | 65 | ||||||
| Ocean City | NJ | 2026-05-04 19:50 | NJDOT | 58 | 48 | 70 | ||||||
| Ocean City | NJ | 2026-05-04 20:00 | NJDOT | 58 | 48 | 70 | ||||||
| Ocean City | NJ | 2026-05-04 20:05 | NJDOT | 58 | 48 | 70 | ||||||
| Ocean City | NJ | 2026-05-04 20:10 | NJDOT | 58 | 48 | 70 | ||||||
| Ocean City | NJ | 2026-05-04 20:15 | NJDOT | 58 | 48 | 70 | ||||||
| Ocean City | NJ | 2026-05-04 20:20 | NJDOT | 58 | 48 | 70 | ||||||
| Ocean City | NJ | 2026-05-04 20:25 | NJDOT | 58 | 48 | 70 | ||||||
| Ocean City | NJ | 2026-05-04 20:30 | NJDOT | 58 | 48 | 70 | ||||||
| Ocean City | NJ | 2026-05-04 20:35 | NJDOT | 58 | 48 | 70 | ||||||
| Ocean City | NJ | 2026-05-04 18:20 | NJDOT | 60 | 48 | 65 | ||||||
| Ocean City | NJ | 2026-05-04 18:10 | NJDOT | 60 | 48 | 65 | ||||||
| Ocean City | NJ | 2026-05-04 20:45 | NJDOT | 58 | 48 | 70 | ||||||
| Ocean City | NJ | 2026-05-04 16:50 | NJDOT | 61 | 47 | 60 | ||||||
| Ocean City | NJ | 2026-05-04 16:00 | NJDOT | 61 | 47 | 60 | ||||||
| Ocean City | NJ | 2026-05-04 16:05 | NJDOT | 61 | 47 | 60 | ||||||
| Ocean City | NJ | 2026-05-04 16:10 | NJDOT | 61 | 47 | 60 | ||||||
| Ocean City | NJ | 2026-05-04 16:15 | NJDOT | 61 | 47 | 60 | ||||||
| Ocean City | NJ | 2026-05-04 16:20 | NJDOT | 61 | 47 | 60 | ||||||
| Ocean City | NJ | 2026-05-04 16:25 | NJDOT | 61 | 47 | 60 | ||||||
| Ocean City | NJ | 2026-05-04 16:30 | NJDOT | 61 | 47 | 60 | ||||||
| Ocean City | NJ | 2026-05-04 16:35 | NJDOT | 61 | 47 | 60 | ||||||
| Ocean City | NJ | 2026-05-04 16:40 | NJDOT | 61 | 47 | 60 | ||||||
| Ocean City | NJ | 2026-05-04 16:45 | NJDOT | 61 | 46 | 58 | ||||||
| Ocean City | NJ | 2026-05-04 17:00 | NJDOT | 61 | 47 | 60 | ||||||
| Ocean City | NJ | 2026-05-04 18:05 | NJDOT | 60 | 48 | 65 | ||||||
| Ocean City | NJ | 2026-05-04 17:05 | NJDOT | 61 | 47 | 60 | ||||||
| Ocean City | NJ | 2026-05-04 17:10 | NJDOT | 61 | 47 | 60 | ||||||
| Ocean City | NJ | 2026-05-04 17:15 | NJDOT | 61 | 47 | 60 | ||||||
| Ocean City | NJ | 2026-05-04 17:20 | NJDOT | 61 | 47 | 60 | ||||||
| Ocean City | NJ | 2026-05-04 17:25 | NJDOT | 61 | 47 | 60 | ||||||
| Ocean City | NJ | 2026-05-04 17:30 | NJDOT | 61 | 47 | 60 | ||||||
| Ocean City | NJ | 2026-05-04 17:35 | NJDOT | 61 | 47 | 60 | ||||||
| Ocean City | NJ | 2026-05-04 17:40 | NJDOT | 61 | 47 | 60 | ||||||
| Ocean City | NJ | 2026-05-04 17:45 | NJDOT | 61 | 48 | 62 | ||||||
| Ocean City | NJ | 2026-05-04 17:50 | NJDOT | 60 | 48 | 65 | ||||||
| Ocean City | NJ | 2026-05-04 18:00 | NJDOT | 60 | 48 | 65 | ||||||
| Ocean City | NJ | 2026-05-04 20:40 | NJDOT | 58 | 48 | 70 | ||||||
| Ocean City | NJ | 2026-05-04 20:50 | NJDOT | 57 | 48 | 72 | ||||||
| Ocean City | NJ | 2026-05-04 15:45 | NJDOT | 61 | 46 | 58 | ||||||
| Ocean City | NJ | 2026-05-05 02:00 | NJDOT | 59 | 51 | 75 | ||||||
| Ocean City | NJ | 2026-05-04 23:30 | NJDOT | 56 | 49 | 77 | ||||||
| Ocean City | NJ | 2026-05-04 23:35 | NJDOT | 56 | 49 | 77 | ||||||
| Ocean City | NJ | 2026-05-04 23:40 | NJDOT | 56 | 49 | 77 | ||||||
| Ocean City | NJ | 2026-05-04 23:45 | NJDOT | 56 | 50 | 80 | ||||||
| Ocean City | NJ | 2026-05-04 23:50 | NJDOT | 56 | 50 | 80 | ||||||
| Ocean City | NJ | 2026-05-05 00:00 | NJDOT | 56 | 50 | 80 | ||||||
| Ocean City | NJ | 2026-05-05 00:05 | NJDOT | 56 | 50 | 80 | ||||||
| Ocean City | NJ | 2026-05-05 00:10 | NJDOT | 56 | 50 | 80 | ||||||
| Ocean City | NJ | 2026-05-05 00:15 | NJDOT | 56 | 50 | 80 | ||||||
| Ocean City | NJ | 2026-05-05 01:55 | NJDOT | 59 | 51 | 75 | ||||||
| Ocean City | NJ | 2026-05-05 02:20 | NJDOT | 59 | 51 | 75 | ||||||
| Ocean City | NJ | 2026-05-04 23:20 | NJDOT | 56 | 49 | 77 | ||||||
| Ocean City | NJ | 2026-05-05 03:00 | NJDOT | 59 | 51 | 75 | ||||||
| Ocean City | NJ | 2026-05-05 03:15 | NJDOT | 59 | 51 | 75 | ||||||
| Ocean City | NJ | 2026-05-05 03:35 | NJDOT | 59 | 51 | 75 | ||||||
| Ocean City | NJ | 2026-05-05 03:40 | NJDOT | 59 | 51 | 75 | ||||||
| Ocean City | NJ | 2026-05-05 03:45 | NJDOT | 59 | 51 | 75 | ||||||
| Ocean City | NJ | 2026-05-05 03:50 | NJDOT | 59 | 51 | 75 | ||||||
| Ocean City | NJ | 2026-05-05 04:20 | NJDOT | 59 | 51 | 75 | ||||||
| Ocean City | NJ | 2026-05-05 04:40 | NJDOT | 59 | 51 | 75 | ||||||
| Ocean City | NJ | 2026-05-05 05:00 | NJDOT | 60 | 51 | 72 | ||||||
| Ocean City | NJ | 2026-05-05 05:10 | NJDOT | 60 | 51 | 72 | ||||||
| Ocean City | NJ | 2026-05-05 05:15 | NJDOT | 60 | 51 | 72 | ||||||
| Ocean City | NJ | 2026-05-04 23:25 | NJDOT | 56 | 49 | 77 | ||||||
| Ocean City | NJ | 2026-05-04 23:15 | NJDOT | 56 | 49 | 77 | ||||||
| Ocean City | NJ | 2026-05-04 21:00 | NJDOT | 57 | 48 | 72 | ||||||
| Ocean City | NJ | 2026-05-04 22:00 | NJDOT | 56 | 49 | 77 | ||||||
| Ocean City | NJ | 2026-05-04 21:05 | NJDOT | 57 | 48 | 72 | ||||||
| Ocean City | NJ | 2026-05-04 21:10 | NJDOT | 57 | 48 | 72 | ||||||
| Ocean City | NJ | 2026-05-04 21:15 | NJDOT | 57 | 48 | 72 | ||||||
| Ocean City | NJ | 2026-05-04 21:20 | NJDOT | 57 | 48 | 72 | ||||||
| Ocean City | NJ | 2026-05-04 21:25 | NJDOT | 57 | 48 | 72 | ||||||
| Ocean City | NJ | 2026-05-04 21:30 | NJDOT | 57 | 48 | 72 | ||||||
| Ocean City | NJ | 2026-05-04 21:35 | NJDOT | 57 | 48 | 72 | ||||||
| Ocean City | NJ | 2026-05-04 21:40 | NJDOT | 57 | 48 | 72 | ||||||
| Ocean City | NJ | 2026-05-04 21:45 | NJDOT | 57 | 48 | 72 | ||||||
| Ocean City | NJ | 2026-05-04 21:50 | NJDOT | 56 | 49 | 77 | ||||||
| Ocean City | NJ | 2026-05-04 22:05 | NJDOT | 56 | 49 | 77 | ||||||
| Ocean City | NJ | 2026-05-04 23:10 | NJDOT | 56 | 49 | 77 | ||||||
| Ocean City | NJ | 2026-05-04 22:10 | NJDOT | 56 | 49 | 77 | ||||||
| Ocean City | NJ | 2026-05-04 22:15 | NJDOT | 56 | 49 | 77 | ||||||
| Ocean City | NJ | 2026-05-04 22:20 | NJDOT | 56 | 49 | 77 | ||||||
| Ocean City | NJ | 2026-05-04 22:25 | NJDOT | 56 | 49 | 77 | ||||||
| Ocean City | NJ | 2026-05-04 22:30 | NJDOT | 56 | 49 | 77 | ||||||
| Ocean City | NJ | 2026-05-04 22:35 | NJDOT | 56 | 49 | 77 | ||||||
| Ocean City | NJ | 2026-05-04 22:40 | NJDOT | 56 | 49 | 77 | ||||||
| Ocean City | NJ | 2026-05-04 22:45 | NJDOT | 56 | 49 | 77 | ||||||
| Ocean City | NJ | 2026-05-04 22:50 | NJDOT | 56 | 49 | 77 | ||||||
| Ocean City | NJ | 2026-05-04 23:00 | NJDOT | 56 | 49 | 77 | ||||||
| Ocean City | NJ | 2026-05-04 23:05 | NJDOT | 56 | 49 | 77 | ||||||
| Ocean City | NJ | 2026-05-04 15:50 | NJDOT | 61 | 47 | 60 | ||||||
| Ocean City | NJ | 2026-05-04 15:40 | NJDOT | 61 | 46 | 58 | ||||||
| Ocean City | NJ | 2026-05-04 05:30 | NJDOT | 43 | 39 | 86 | ||||||
| Ocean City | NJ | 2026-05-04 09:15 | NJDOT | 53 | 43 | 69 | ||||||
| Ocean City | NJ | 2026-05-04 08:20 | NJDOT | 48 | 43 | 83 | ||||||
| Ocean City | NJ | 2026-05-04 08:25 | NJDOT | 48 | 43 | 83 | ||||||
| Ocean City | NJ | 2026-05-04 08:30 | NJDOT | 48 | 43 | 83 | ||||||
| Ocean City | NJ | 2026-05-04 08:35 | NJDOT | 48 | 43 | 83 | ||||||
| Ocean City | NJ | 2026-05-04 08:40 | NJDOT | 48 | 43 | 83 | ||||||
| Ocean City | NJ | 2026-05-04 08:45 | NJDOT | 48 | 43 | 83 | ||||||
| Ocean City | NJ | 2026-05-04 08:50 | NJDOT | 53 | 43 | 69 | ||||||
| Ocean City | NJ | 2026-05-04 09:00 | NJDOT | 53 | 43 | 69 | ||||||
| Ocean City | NJ | 2026-05-04 09:05 | NJDOT | 53 | 43 | 69 | ||||||
| Ocean City | NJ | 2026-05-04 09:10 | NJDOT | 53 | 43 | 69 | ||||||
| Ocean City | NJ | 2026-05-04 09:20 | NJDOT | 53 | 43 | 69 | ||||||
| Ocean City | NJ | 2026-05-04 08:10 | NJDOT | 48 | 43 | 83 | ||||||
| Ocean City | NJ | 2026-05-04 09:25 | NJDOT | 53 | 43 | 69 | ||||||
| Ocean City | NJ | 2026-05-04 09:30 | NJDOT | 53 | 43 | 69 | ||||||
| Ocean City | NJ | 2026-05-04 09:35 | NJDOT | 53 | 43 | 69 | ||||||
| Ocean City | NJ | 2026-05-04 09:40 | NJDOT | 53 | 43 | 69 | ||||||
| Ocean City | NJ | 2026-05-04 09:45 | NJDOT | 53 | 43 | 69 | ||||||
| Ocean City | NJ | 2026-05-04 09:50 | NJDOT | 54 | 43 | 67 | ||||||
| Ocean City | NJ | 2026-05-04 10:00 | NJDOT | 54 | 43 | 67 | ||||||
| Ocean City | NJ | 2026-05-04 10:05 | NJDOT | 54 | 43 | 67 | ||||||
| Ocean City | NJ | 2026-05-04 10:10 | NJDOT | 54 | 43 | 67 | ||||||
| Ocean City | NJ | 2026-05-04 10:15 | NJDOT | 54 | 43 | 67 | ||||||
| Ocean City | NJ | 2026-05-04 10:20 | NJDOT | 54 | 43 | 67 | ||||||
| Ocean City | NJ | 2026-05-04 08:15 | NJDOT | 48 | 43 | 83 | ||||||
| Ocean City | NJ | 2026-05-04 08:05 | NJDOT | 48 | 43 | 83 | ||||||
| Ocean City | NJ | 2026-05-04 10:30 | NJDOT | 54 | 43 | 67 | ||||||
| Ocean City | NJ | 2026-05-04 06:30 | NJDOT | 43 | 40 | 89 | ||||||
| Ocean City | NJ | 2026-05-04 05:35 | NJDOT | 43 | 39 | 86 | ||||||
| Ocean City | NJ | 2026-05-04 05:40 | NJDOT | 43 | 39 | 86 | ||||||
| Ocean City | NJ | 2026-05-04 05:45 | NJDOT | 43 | 39 | 86 | ||||||
| Ocean City | NJ | 2026-05-04 05:50 | NJDOT | 43 | 40 | 89 | ||||||
| Ocean City | NJ | 2026-05-04 06:00 | NJDOT | 43 | 40 | 89 | ||||||
| Ocean City | NJ | 2026-05-04 06:05 | NJDOT | 43 | 40 | 89 | ||||||
| Ocean City | NJ | 2026-05-04 06:10 | NJDOT | 43 | 40 | 89 | ||||||
| Ocean City | NJ | 2026-05-04 06:15 | NJDOT | 43 | 40 | 89 | ||||||
| Ocean City | NJ | 2026-05-04 06:20 | NJDOT | 43 | 40 | 89 | ||||||
| Ocean City | NJ | 2026-05-04 06:25 | NJDOT | 43 | 40 | 89 | ||||||
| Ocean City | NJ | 2026-05-04 06:40 | NJDOT | 43 | 40 | 89 | ||||||
| Ocean City | NJ | 2026-05-04 08:00 | NJDOT | 48 | 43 | 83 | ||||||
| Ocean City | NJ | 2026-05-04 07:00 | NJDOT | 45 | 42 | 89 | ||||||
| Ocean City | NJ | 2026-05-04 07:05 | NJDOT | 45 | 42 | 89 | ||||||
| Ocean City | NJ | 2026-05-04 07:10 | NJDOT | 45 | 42 | 89 | ||||||
| Ocean City | NJ | 2026-05-04 07:15 | NJDOT | 45 | 42 | 89 | ||||||
| Ocean City | NJ | 2026-05-04 07:20 | NJDOT | 45 | 42 | 89 | ||||||
| Ocean City | NJ | 2026-05-04 07:25 | NJDOT | 45 | 42 | 89 | ||||||
| Ocean City | NJ | 2026-05-04 07:30 | NJDOT | 45 | 42 | 89 | ||||||
| Ocean City | NJ | 2026-05-04 07:35 | NJDOT | 45 | 42 | 89 | ||||||
| Ocean City | NJ | 2026-05-04 07:40 | NJDOT | 45 | 42 | 89 | ||||||
| Ocean City | NJ | 2026-05-04 07:45 | NJDOT | 45 | 42 | 89 | ||||||
| Ocean City | NJ | 2026-05-04 07:50 | NJDOT | 48 | 43 | 83 | ||||||
| Ocean City | NJ | 2026-05-04 10:25 | NJDOT | 54 | 43 | 67 | ||||||
| Ocean City | NJ | 2026-05-04 10:35 | NJDOT | 54 | 43 | 67 | ||||||
| Ocean City | NJ | 2026-05-04 15:35 | NJDOT | 61 | 46 | 58 | ||||||
| Ocean City | NJ | 2026-05-04 14:25 | NJDOT | 62 | 44 | 52 | ||||||
| Ocean City | NJ | 2026-05-04 13:30 | NJDOT | 61 | 42 | 50 | ||||||
| Ocean City | NJ | 2026-05-04 13:35 | NJDOT | 61 | 42 | 50 | ||||||
| Ocean City | NJ | 2026-05-04 13:40 | NJDOT | 61 | 42 | 50 | ||||||
| Ocean City | NJ | 2026-05-04 13:45 | NJDOT | 61 | 43 | 52 | ||||||
| Ocean City | NJ | 2026-05-04 13:50 | NJDOT | 62 | 44 | 52 | ||||||
| Ocean City | NJ | 2026-05-04 14:00 | NJDOT | 62 | 44 | 52 | ||||||
| Ocean City | NJ | 2026-05-04 14:05 | NJDOT | 62 | 44 | 52 | ||||||
| Ocean City | NJ | 2026-05-04 14:10 | NJDOT | 62 | 44 | 52 | ||||||
| Ocean City | NJ | 2026-05-04 14:15 | NJDOT | 62 | 44 | 52 | ||||||
| Ocean City | NJ | 2026-05-04 14:20 | NJDOT | 62 | 44 | 52 | ||||||
| Ocean City | NJ | 2026-05-04 14:30 | NJDOT | 62 | 44 | 52 | ||||||
| Ocean City | NJ | 2026-05-04 13:20 | NJDOT | 61 | 42 | 50 | ||||||
| Ocean City | NJ | 2026-05-04 14:35 | NJDOT | 62 | 44 | 52 | ||||||
| Ocean City | NJ | 2026-05-04 14:40 | NJDOT | 62 | 44 | 52 | ||||||
| Ocean City | NJ | 2026-05-04 14:45 | NJDOT | 62 | 45 | 54 | ||||||
| Ocean City | NJ | 2026-05-04 14:50 | NJDOT | 61 | 46 | 58 | ||||||
| Ocean City | NJ | 2026-05-04 15:00 | NJDOT | 61 | 46 | 58 | ||||||
| Ocean City | NJ | 2026-05-04 15:05 | NJDOT | 61 | 46 | 58 | ||||||
| Ocean City | NJ | 2026-05-04 15:10 | NJDOT | 61 | 46 | 58 | ||||||
| Ocean City | NJ | 2026-05-04 15:15 | NJDOT | 61 | 46 | 58 | ||||||
| Ocean City | NJ | 2026-05-04 15:20 | NJDOT | 61 | 46 | 58 | ||||||
| Ocean City | NJ | 2026-05-04 15:25 | NJDOT | 61 | 46 | 58 | ||||||
| Ocean City | NJ | 2026-05-04 15:30 | NJDOT | 61 | 46 | 58 | ||||||
| Ocean City | NJ | 2026-05-04 13:25 | NJDOT | 61 | 42 | 50 | ||||||
| Ocean City | NJ | 2026-05-04 13:15 | NJDOT | 61 | 42 | 50 | ||||||
| Ocean City | NJ | 2026-05-04 10:40 | NJDOT | 54 | 43 | 67 | ||||||
| Ocean City | NJ | 2026-05-04 11:40 | NJDOT | 56 | 42 | 60 | ||||||
| Ocean City | NJ | 2026-05-04 10:45 | NJDOT | 54 | 43 | 67 | ||||||
| Ocean City | NJ | 2026-05-04 10:50 | NJDOT | 56 | 42 | 60 | ||||||
| Ocean City | NJ | 2026-05-04 11:00 | NJDOT | 56 | 42 | 60 | ||||||
| Ocean City | NJ | 2026-05-04 11:05 | NJDOT | 56 | 42 | 60 | ||||||
| Ocean City | NJ | 2026-05-04 11:10 | NJDOT | 56 | 42 | 60 | ||||||
| Ocean City | NJ | 2026-05-04 11:15 | NJDOT | 56 | 42 | 60 | ||||||
| Ocean City | NJ | 2026-05-04 11:20 | NJDOT | 56 | 42 | 60 | ||||||
| Ocean City | NJ | 2026-05-04 11:25 | NJDOT | 56 | 42 | 60 | ||||||
| Ocean City | NJ | 2026-05-04 11:30 | NJDOT | 56 | 42 | 60 | ||||||
| Ocean City | NJ | 2026-05-04 11:35 | NJDOT | 56 | 42 | 60 | ||||||
| Ocean City | NJ | 2026-05-04 11:45 | NJDOT | 56 | 42 | 60 | ||||||
| Ocean City | NJ | 2026-05-04 13:10 | NJDOT | 61 | 42 | 50 | ||||||
| Ocean City | NJ | 2026-05-04 11:50 | NJDOT | 58 | 42 | 55 | ||||||
| Ocean City | NJ | 2026-05-04 12:00 | NJDOT | 58 | 42 | 55 | ||||||
| Ocean City | NJ | 2026-05-04 12:05 | NJDOT | 58 | 42 | 55 | ||||||
| Ocean City | NJ | 2026-05-04 12:10 | NJDOT | 58 | 42 | 55 | ||||||
| Ocean City | NJ | 2026-05-04 12:15 | NJDOT | 58 | 42 | 55 | ||||||
| Ocean City | NJ | 2026-05-04 12:20 | NJDOT | 58 | 42 | 55 | ||||||
| Ocean City | NJ | 2026-05-04 12:25 | NJDOT | 58 | 42 | 55 | ||||||
| Ocean City | NJ | 2026-05-04 12:30 | NJDOT | 58 | 42 | 55 | ||||||
| Ocean City | NJ | 2026-05-04 12:35 | NJDOT | 58 | 42 | 55 | ||||||
| Ocean City | NJ | 2026-05-04 13:00 | NJDOT | 61 | 42 | 50 | ||||||
| Ocean City | NJ | 2026-05-04 13:05 | NJDOT | 61 | 42 | 50 | ||||||
| Ocean City | NJ | 2026-05-05 05:20 | NJDOT | 60 | 51 | 72 |
data collection created in 0.023360967636108 (queried in 0.005875) rendered in: 0.00025510787963867

